Time;durP1;ratioP1;P1;durP2;ratioP2;P2;SDS_P1;SDS_P2;PMS_P1;PMS_P2;Temp;Humidity;BMP_temperature;BMP_pressure;BME280_temperature;BME280_humidity;BME280_pressure;Samples;Min_cycle;Max_cycle;Signal;HPM_P1;HPM_P2
2021/12/07 00:00:46;;;;;;;22.15;12.05;;;8.10;95.40;;;;;;4934322;29;20055;-72
2021/12/07 00:03:52;;;;;;;19.77;11.63;;;8.00;95.90;;;;;;4934006;29;20051;-72
2021/12/07 00:06:56;;;;;;;25.85;12.80;;;7.90;96.20;;;;;;4934435;29;20042;-72
2021/12/07 00:10:00;;;;;;;51.50;22.88;;;7.90;96.30;;;;;;4933280;29;20046;-72
2021/12/07 00:13:05;;;;;;;31.00;17.33;;;8.00;96.50;;;;;;4934024;29;20047;-72
2021/12/07 00:16:10;;;;;;;23.73;13.00;;;8.10;96.00;;;;;;4934048;29;20062;-72
2021/12/07 00:19:14;;;;;;;25.88;12.60;;;8.00;96.20;;;;;;4934166;29;20054;-72
2021/12/07 00:22:18;;;;;;;23.55;12.00;;;8.00;96.00;;;;;;4934175;29;20400;-72
2021/12/07 00:25:23;;;;;;;22.02;10.90;;;7.80;95.90;;;;;;4933833;29;20054;-72
2021/12/07 00:28:27;;;;;;;21.17;11.23;;;7.80;96.00;;;;;;4934034;29;20047;-73
2021/12/07 00:31:43;;;;;;;20.73;10.68;;;7.80;96.20;;;;;;4933970;29;20062;-72
2021/12/07 00:35:13;;;;;;;22.42;10.25;;;7.80;96.40;;;;;;4923098;29;20067;-72
2021/12/07 00:38:25;;;;;;;18.35;9.90;;;7.70;96.20;;;;;;4933893;29;20066;-72
2021/12/07 00:41:29;;;;;;;;;;;7.70;96.40;;;;;;4934117;29;20054;-72
2021/12/07 00:44:33;;;;;;;19.60;10.75;;;7.70;95.70;;;;;;4933442;29;20385;-72
2021/12/07 00:47:37;;;;;;;22.00;10.98;;;7.60;95.80;;;;;;4933740;29;20051;-72
2021/12/07 00:50:45;;;;;;;20.83;10.63;;;7.50;96.10;;;;;;4933772;29;20116;-72
2021/12/07 00:53:49;;;;;;;20.65;10.35;;;7.40;96.60;;;;;;4933674;29;20054;-72
2021/12/07 00:56:53;;;;;;;20.23;9.57;;;7.40;96.80;;;;;;4932899;29;20050;-72
2021/12/07 00:59:57;;;;;;;15.30;7.78;;;7.40;96.90;;;;;;4933627;29;20613;-72
2021/12/07 01:03:02;;;;;;;15.40;9.02;;;7.50;96.20;;;;;;4932730;29;20562;-72
2021/12/07 01:09:26;;;;;;;22.45;11.50;;;7.30;95.50;;;;;;4933690;29;20497;-72
2021/12/07 01:26:00;;;;;;;22.10;11.23;;;7.20;96.10;;;;;;4936485;29;20396;-72
2021/12/07 01:29:05;;;;;;;25.15;12.05;;;7.20;96.50;;;;;;4936571;29;20507;-72
2021/12/07 02:01:42;;;;;;;15.38;9.10;;;6.70;97.40;;;;;;4936434;29;20051;-72
2021/12/07 02:04:46;;;;;;;14.32;8.45;;;6.70;97.50;;;;;;4935788;29;20047;-72
2021/12/07 02:07:53;;;;;;;14.98;8.23;;;6.60;97.60;;;;;;4935628;29;20038;-72
2021/12/07 02:11:01;;;;;;;20.30;8.63;;;6.60;96.70;;;;;;4935523;29;20047;-72
2021/12/07 02:14:16;;;;;;;17.90;9.60;;;6.60;96.80;;;;;;4935280;29;20042;-72
2021/12/07 02:17:24;;;;;;;23.88;11.20;;;6.60;96.40;;;;;;4935493;29;20051;-72
2021/12/07 02:20:31;;;;;;;22.83;11.68;;;6.40;96.30;;;;;;4935488;29;20506;-72
2021/12/07 02:23:36;;;;;;;20.80;10.88;;;6.30;96.80;;;;;;4934895;29;20047;-72
2021/12/07 02:26:40;;;;;;;21.08;10.57;;;6.30;97.10;;;;;;4935523;29;20055;-72
2021/12/07 02:29:44;;;;;;;18.33;10.48;;;6.30;97.10;;;;;;4924490;29;20051;-72
2021/12/07 02:32:51;;;;;;;18.55;10.00;;;6.30;97.50;;;;;;4935357;29;20046;-72
2021/12/07 02:35:55;;;;;;;23.60;11.10;;;6.20;97.40;;;;;;4934966;29;20412;-72
2021/12/07 02:39:00;;;;;;;17.27;8.95;;;6.20;97.30;;;;;;4935173;29;20051;-72
2021/12/07 02:42:05;;;;;;;17.63;8.60;;;6.20;97.10;;;;;;4935934;29;20392;-72
2021/12/07 02:45:11;;;;;;;19.55;8.68;;;6.30;97.20;;;;;;4934613;29;20068;-72
2021/12/07 02:48:15;;;;;;;15.20;8.15;;;6.20;97.10;;;;;;4936499;29;20043;-72
2021/12/07 02:51:19;;;;;;;15.23;8.32;;;6.20;97.50;;;;;;4935666;29;20055;-72
2021/12/07 02:54:24;;;;;;;16.02;7.90;;;6.30;97.70;;;;;;4934629;29;20063;-72
2021/12/07 02:57:30;;;;;;;14.13;8.15;;;6.40;98.00;;;;;;4935737;29;20038;-72
2021/12/07 03:00:43;;;;;;;15.40;7.35;;;6.40;98.20;;;;;;4934461;29;20424;-72
2021/12/07 03:03:58;;;;;;;14.35;8.00;;;6.50;98.30;;;;;;4934814;29;20050;-72
2021/12/07 03:07:19;;;;;;;12.13;7.18;;;6.50;98.10;;;;;;4934791;29;20047;-72
2021/12/07 03:27:17;;;;;;;20.52;10.90;;;6.60;98.00;;;;;;4934441;29;20043;-71
2021/12/07 03:30:24;;;;;;;20.45;10.32;;;6.80;98.20;;;;;;4934335;29;20038;-71
2021/12/07 03:33:28;;;;;;;20.45;12.45;;;6.80;97.80;;;;;;4933772;29;20050;-71
2021/12/07 03:36:32;;;;;;;24.25;13.30;;;6.90;97.60;;;;;;4934143;29;20070;-71
2021/12/07 03:39:38;;;;;;;24.63;13.10;;;6.90;97.50;;;;;;4934137;29;20051;-71
2021/12/07 03:42:42;;;;;;;21.73;12.45;;;6.70;97.40;;;;;;4933703;29;20046;-71
2021/12/07 03:45:50;;;;;;;24.30;13.32;;;6.60;97.50;;;;;;4922831;29;20054;-71
2021/12/07 03:48:54;;;;;;;26.88;13.68;;;6.50;97.80;;;;;;4933799;29;20050;-71
2021/12/07 03:51:59;;;;;;;24.15;14.35;;;7.10;98.30;;;;;;4933752;29;20046;-71
2021/12/07 03:55:06;;;;;;;24.13;14.93;;;6.30;98.10;;;;;;4933366;29;20404;-71
2021/12/07 03:58:10;;;;;;;23.15;14.57;;;6.30;98.60;;;;;;4933752;29;20266;-71
2021/12/07 04:01:16;;;;;;;24.60;14.02;;;6.20;98.10;;;;;;4934555;29;20557;-71
2021/12/07 04:04:22;;;;;;;22.90;14.43;;;6.10;98.60;;;;;;4933744;29;20051;-71
2021/12/07 04:07:27;;;;;;;26.27;13.40;;;6.30;98.30;;;;;;4933699;29;20055;-71
2021/12/07 04:10:32;;;;;;;18.10;12.80;;;6.40;98.00;;;;;;4933663;29;20051;-71
2021/12/07 04:13:36;;;;;;;18.75;12.25;;;6.30;97.80;;;;;;4933514;29;20050;-71
2021/12/07 04:16:41;;;;;;;25.48;12.32;;;6.40;97.60;;;;;;4922630;29;20042;-71
2021/12/07 04:19:45;;;;;;;23.55;13.38;;;6.30;97.60;;;;;;4922534;29;20050;-71
2021/12/07 04:22:49;;;;;;;23.10;13.48;;;6.20;97.50;;;;;;4933434;29;20050;-71
2021/12/07 04:25:53;;;;;;;29.38;16.55;;;6.00;97.30;;;;;;4933990;29;20043;-71
2021/12/07 04:28:57;;;;;;;21.45;14.82;;;5.60;98.00;;;;;;4933151;29;20051;-71
2021/12/07 04:32:01;;;;;;;25.02;13.48;;;5.50;98.80;;;;;;4933823;29;20051;-71
2021/12/07 04:35:06;;;;;;;17.05;11.57;;;5.60;99.30;;;;;;4932664;29;20071;-70
2021/12/07 04:38:11;;;;;;;19.92;11.45;;;5.80;98.60;;;;;;4934072;29;20043;-71
2021/12/07 04:41:15;;;;;;;16.85;11.25;;;5.90;98.20;;;;;;4933952;29;20102;-71
2021/12/07 04:44:22;;;;;;;18.55;11.48;;;6.10;97.50;;;;;;4933414;29;20519;-71
2021/12/07 04:47:41;;;;;;;20.48;10.57;;;5.90;97.20;;;;;;4933632;29;20456;-71
2021/12/07 04:57:43;;;;;;;17.80;10.75;;;5.80;97.80;;;;;;4933793;29;20046;-71
2021/12/07 05:00:48;;;;;;;20.73;10.00;;;5.70;97.90;;;;;;4933648;29;20047;-71
2021/12/07 05:03:56;;;;;;;21.00;10.27;;;5.60;98.10;;;;;;4933716;29;20055;-71
2021/12/07 05:07:09;;;;;;;18.42;9.82;;;5.60;98.50;;;;;;4933792;29;20394;-71
2021/12/07 05:10:36;;;;;;;16.20;9.85;;;5.60;98.70;;;;;;4933416;29;20047;-71
2021/12/07 05:23:57;;;;;;;17.83;9.68;;;5.80;97.50;;;;;;4933499;29;20054;-71
2021/12/07 05:40:34;;;;;;;24.05;10.70;;;5.50;98.10;;;;;;4933522;29;20523;-71
2021/12/07 05:43:38;;;;;;;19.33;10.10;;;5.40;98.40;;;;;;4933007;29;20051;-71
2021/12/07 05:46:43;;;;;;;15.00;10.63;;;5.40;98.60;;;;;;4933247;29;20042;-71
2021/12/07 05:49:47;;;;;;;17.83;11.52;;;5.40;98.60;;;;;;4933406;29;20051;-71
2021/12/07 05:52:52;;;;;;;18.65;9.95;;;5.40;98.50;;;;;;4933421;29;20046;-72
2021/12/07 05:55:55;;;;;;;14.60;9.30;;;6.00;99.00;;;;;;4933010;29;20120;-72
2021/12/07 05:58:59;;;;;;;19.52;9.13;;;5.60;98.20;;;;;;4936419;29;20038;-72
2021/12/07 06:02:04;;;;;;;19.17;10.90;;;5.70;97.60;;;;;;4935935;29;20527;-71
2021/12/07 06:05:08;;;;;;;12.93;9.05;;;5.70;97.40;;;;;;4935816;29;20068;-71
2021/12/07 06:08:12;;;;;;;15.70;8.38;;;5.80;97.20;;;;;;4936634;29;20047;-71
2021/12/07 06:11:18;;;;;;;19.38;9.38;;;5.70;96.80;;;;;;4936425;29;20060;-71
2021/12/07 06:14:29;;;;;;;18.95;8.98;;;5.60;97.10;;;;;;4936091;29;20348;-71
2021/12/07 06:17:33;;;;;;;14.43;9.63;;;5.40;97.20;;;;;;4936212;29;20403;-71
2021/12/07 06:20:40;;;;;;;16.17;8.98;;;5.30;97.50;;;;;;4936020;29;20043;-70
2021/12/07 06:23:44;;;;;;;21.98;10.52;;;5.30;97.60;;;;;;4936067;29;20055;-70
2021/12/07 06:26:48;;;;;;;15.70;9.63;;;5.20;97.90;;;;;;4935205;29;20046;-71
2021/12/07 06:29:52;;;;;;;16.05;10.23;;;5.20;98.10;;;;;;4936073;29;20113;-70
2021/12/07 06:32:56;;;;;;;15.38;9.43;;;5.20;97.90;;;;;;4935719;29;20047;-71
2021/12/07 06:36:03;;;;;;;22.33;9.75;;;5.30;98.00;;;;;;4935229;29;20054;-65
2021/12/07 06:39:08;;;;;;;28.10;12.85;;;5.40;98.30;;;;;;4935667;29;20507;-64
2021/12/07 06:42:12;;;;;;;26.92;11.18;;;5.50;98.30;;;;;;4935744;29;20047;-65
2021/12/07 06:45:16;;;;;;;23.45;12.48;;;5.60;98.20;;;;;;4935405;29;20046;-65
2021/12/07 06:48:21;;;;;;;27.92;15.05;;;5.70;98.10;;;;;;4934999;29;20059;-66
2021/12/07 06:51:25;;;;;;;30.10;13.48;;;5.80;98.10;;;;;;4934869;29;20047;-65
2021/12/07 06:54:29;;;;;;;29.70;13.30;;;5.90;98.30;;;;;;4935450;29;20063;-65
2021/12/07 06:57:34;;;;;;;28.02;13.60;;;6.00;98.40;;;;;;4935370;29;20043;-66
2021/12/07 07:00:38;;;;;;;31.63;13.38;;;6.10;98.40;;;;;;4935083;29;20055;-65
2021/12/07 07:03:43;;;;;;;20.95;12.13;;;6.20;98.20;;;;;;4935460;29;20043;-65
2021/12/07 07:06:48;;;;;;;24.63;12.73;;;6.30;98.20;;;;;;4935831;29;20043;-65
2021/12/07 07:09:52;;;;;;;27.38;11.57;;;6.40;97.90;;;;;;4935289;29;20050;-66
2021/12/07 07:12:56;;;;;;;38.35;16.27;;;6.50;98.00;;;;;;4935386;29;20055;-66
2021/12/07 07:16:00;;;;;;;22.73;12.20;;;6.60;98.00;;;;;;4934814;29;20063;-66
2021/12/07 07:19:04;;;;;;;32.67;13.02;;;6.70;97.90;;;;;;4935172;29;20523;-67
2021/12/07 07:22:08;;;;;;;29.67;14.02;;;6.80;97.40;;;;;;4935150;29;20051;-66
2021/12/07 07:25:13;;;;;;;31.33;15.82;;;6.80;97.20;;;;;;4934331;29;20050;-64
2021/12/07 07:28:17;;;;;;;24.00;13.57;;;6.80;97.30;;;;;;4934825;29;20070;-63
2021/12/07 07:31:21;;;;;;;30.77;14.13;;;6.90;96.90;;;;;;4934766;29;20408;-63
2021/12/07 07:34:25;;;;;;;24.65;11.48;;;7.00;96.90;;;;;;4934388;29;20062;-64
2021/12/07 07:37:29;;;;;;;19.85;10.80;;;7.00;96.90;;;;;;4934800;29;20066;-64
2021/12/07 07:40:33;;;;;;;21.15;11.27;;;7.00;96.80;;;;;;4934479;29;20051;-64
2021/12/07 07:43:37;;;;;;;23.70;11.18;;;7.00;96.60;;;;;;4934724;29;20054;-64
2021/12/07 07:46:49;;;;;;;21.98;10.98;;;7.10;96.90;;;;;;4933705;29;20067;-65
2021/12/07 07:49:54;;;;;;;14.63;10.05;;;7.10;96.60;;;;;;4934615;29;20404;-64
2021/12/07 07:52:58;;;;;;;19.73;9.43;;;7.10;96.30;;;;;;4934597;29;20055;-64
2021/12/07 07:56:03;;;;;;;18.38;9.93;;;7.20;95.80;;;;;;4934220;29;20051;-65
2021/12/07 07:59:07;;;;;;;27.42;11.82;;;7.30;95.50;;;;;;4934314;29;20054;-64
2021/12/07 08:02:10;;;;;;;23.95;9.57;;;7.40;95.80;;;;;;4934288;29;20047;-66
2021/12/07 08:05:15;;;;;;;22.23;9.45;;;7.50;95.70;;;;;;4933661;29;20047;-66
2021/12/07 08:08:19;;;;;;;15.77;8.55;;;7.50;95.10;;;;;;4934402;29;20063;-65
2021/12/07 08:11:25;;;;;;;18.33;8.13;;;7.60;94.70;;;;;;4934174;29;20047;-65
2021/12/07 08:14:28;;;;;;;18.48;8.02;;;7.60;94.50;;;;;;4933527;29;20078;-67
2021/12/07 08:17:33;;;;;;;14.38;8.10;;;7.80;94.50;;;;;;4933797;29;20051;-68
2021/12/07 08:20:38;;;;;;;14.45;8.40;;;7.90;94.60;;;;;;4932999;29;20039;-67
2021/12/07 08:23:43;;;;;;;15.05;6.63;;;8.10;94.20;;;;;;4933658;29;20059;-68
2021/12/07 08:26:47;;;;;;;13.90;6.43;;;8.30;93.90;;;;;;4933937;29;20400;-67
2021/12/07 08:29:51;;;;;;;11.75;5.97;;;8.60;93.30;;;;;;4933989;29;20043;-66
2021/12/07 08:32:55;;;;;;;11.82;8.02;;;8.80;93.20;;;;;;4933779;29;20042;-66
2021/12/07 08:36:00;;;;;;;22.00;7.28;;;9.20;93.10;;;;;;4933490;29;20062;-65
2021/12/07 08:39:07;;;;;;;21.40;7.85;;;9.30;92.30;;;;;;4933996;29;20109;-66
2021/12/07 08:42:11;;;;;;;12.52;8.05;;;9.50;92.50;;;;;;4933373;29;20054;-65
2021/12/07 08:45:15;;;;;;;13.55;6.53;;;9.80;92.30;;;;;;4933725;29;20043;-66
2021/12/07 08:48:20;;;;;;;13.80;5.80;;;10.00;92.30;;;;;;4933535;29;20050;-65
2021/12/07 08:51:24;;;;;;;19.30;7.50;;;10.10;91.90;;;;;;4933371;29;20043;-66
2021/12/07 08:59:36;;;;;;;12.15;5.88;;;10.20;91.30;;;;;;4933275;29;20483;-66
2021/12/07 09:01:15;;;;;;;13.75;6.93;;;10.70;91.20;;;;;;4933324;29;20047;-65
2021/12/07 09:04:20;;;;;;;11.13;6.55;;;10.90;90.60;;;;;;4933460;29;20054;-65
2021/12/07 09:07:24;;;;;;;14.23;7.50;;;11.10;90.60;;;;;;4933646;29;20055;-65
2021/12/07 09:10:28;;;;;;;12.48;6.63;;;11.20;90.00;;;;;;4933288;29;20142;-65
2021/12/07 09:13:33;;;;;;;11.25;6.20;;;11.40;89.60;;;;;;4933318;29;20047;-66
2021/12/07 09:16:37;;;;;;;12.00;6.35;;;11.50;88.90;;;;;;4933574;29;20102;-67
2021/12/07 09:19:41;;;;;;;15.60;6.40;;;11.70;89.00;;;;;;4933762;29;20046;-68
2021/12/07 09:22:47;;;;;;;12.65;5.90;;;11.70;87.30;;;;;;4933312;29;20416;-66
2021/12/07 09:25:52;;;;;;;11.90;5.88;;;11.40;85.00;;;;;;4933453;29;20054;-65
2021/12/07 09:28:56;;;;;;;20.58;9.45;;;11.30;84.90;;;;;;4933607;29;20046;-66
2021/12/07 09:32:01;;;;;;;9.05;5.97;;;11.40;86.40;;;;;;4935715;29;20054;-67
2021/12/07 09:35:06;;;;;;;11.18;6.13;;;11.60;86.70;;;;;;4936605;29;20145;-65
2021/12/07 09:38:11;;;;;;;10.40;5.80;;;11.60;85.70;;;;;;4936985;29;20054;-66
2021/12/07 09:41:17;;;;;;;12.77;5.10;;;11.70;86.50;;;;;;4936709;29;20058;-65
2021/12/07 09:44:23;;;;;;;15.82;6.93;;;11.70;86.70;;;;;;4936474;29;20051;-65
2021/12/07 09:47:27;;;;;;;11.65;6.85;;;11.90;86.90;;;;;;4936457;29;20079;-65
2021/12/07 09:50:34;;;;;;;12.73;7.20;;;11.90;87.00;;;;;;4936655;29;20219;-65
2021/12/07 09:53:38;;;;;;;13.90;5.88;;;11.90;86.90;;;;;;4936441;29;20307;-65
2021/12/07 09:56:42;;;;;;;13.48;7.13;;;12.00;87.10;;;;;;4936291;29;20046;-67
2021/12/07 09:59:46;;;;;;;12.30;7.30;;;11.90;86.70;;;;;;4936451;29;20511;-66
2021/12/07 10:02:50;;;;;;;16.35;8.05;;;11.80;86.90;;;;;;4936176;29;20047;-66
2021/12/07 10:05:54;;;;;;;17.35;8.82;;;11.60;86.50;;;;;;4936301;29;20042;-68
2021/12/07 10:08:59;;;;;;;23.38;9.45;;;11.50;87.10;;;;;;4936186;29;20051;-65
2021/12/07 10:12:05;;;;;;;13.98;7.95;;;11.40;87.80;;;;;;4936082;29;20047;-66
2021/12/07 10:15:10;;;;;;;19.77;7.20;;;11.70;88.00;;;;;;4935799;29;20046;-67
2021/12/07 10:18:17;;;;;;;14.40;7.90;;;12.00;91.30;;;;;;4935726;29;20066;-66
2021/12/07 10:21:26;;;;;;;14.55;8.05;;;12.40;91.20;;;;;;4936053;29;20396;-67
2021/12/07 10:24:42;;;;;;;13.25;6.43;;;12.60;86.40;;;;;;4935956;29;20055;-65
2021/12/07 10:27:46;;;;;;;10.20;6.07;;;12.60;83.10;;;;;;4935845;29;20487;-67
2021/12/07 10:30:50;;;;;;;10.95;5.30;;;12.70;83.40;;;;;;4935928;29;20047;-63
2021/12/07 10:34:07;;;;;;;10.07;5.60;;;12.70;82.50;;;;;;4935374;29;20043;-67
2021/12/07 10:37:16;;;;;;;8.77;5.35;;;12.70;82.20;;;;;;4936039;29;20400;-65
2021/12/07 10:40:21;;;;;;;11.50;5.90;;;12.80;81.40;;;;;;4936079;29;20142;-67
2021/12/07 10:43:49;;;;;;;10.32;5.13;;;12.80;80.60;;;;;;4934898;29;20059;-67
2021/12/07 10:47:05;;;;;;;9.75;4.53;;;12.70;81.30;;;;;;4935550;29;20055;-68
2021/12/07 10:50:13;;;;;;;8.50;4.72;;;12.60;80.20;;;;;;4935827;29;20050;-67
2021/12/07 10:53:17;;;;;;;14.45;5.20;;;12.70;81.10;;;;;;4935702;29;20132;-67
2021/12/07 10:56:32;;;;;;;9.10;4.60;;;12.90;79.70;;;;;;4935203;29;20067;-67
2021/12/07 10:59:37;;;;;;;12.43;6.90;;;13.00;78.70;;;;;;4935294;29;20552;-67
2021/12/07 11:02:44;;;;;;;10.88;5.00;;;13.10;77.40;;;;;;4934778;29;20405;-67
2021/12/07 11:05:53;;;;;;;10.95;4.85;;;13.20;77.70;;;;;;4935492;29;20295;-67
2021/12/07 11:08:57;;;;;;;9.23;4.40;;;13.30;77.50;;;;;;4935148;29;20051;-68
2021/12/07 11:12:09;;;;;;;8.38;4.32;;;13.30;77.10;;;;;;4935238;29;20047;-66
2021/12/07 11:15:21;;;;;;;13.27;3.97;;;13.40;76.90;;;;;;4934861;29;20055;-66
2021/12/07 11:18:33;;;;;;;7.10;4.43;;;13.40;77.40;;;;;;4935387;29;20047;-68
2021/12/07 11:21:42;;;;;;;9.43;4.30;;;13.50;77.20;;;;;;4934952;29;20070;-66
2021/12/07 11:24:48;;;;;;;8.15;3.85;;;13.40;74.10;;;;;;4934907;29;20389;-66
2021/12/07 11:31:23;;;;;;;6.40;3.60;;;13.40;74.90;;;;;;4934959;29;20049;-66
2021/12/07 11:34:39;;;;;;;9.93;3.65;;;13.30;72.70;;;;;;4934492;29;20062;-65
2021/12/07 11:37:46;;;;;;;7.88;3.88;;;13.30;73.80;;;;;;4934548;29;20063;-66
2021/12/07 11:40:50;;;;;;;6.72;3.10;;;13.30;73.50;;;;;;4934578;29;20051;-67
2021/12/07 11:43:58;;;;;;;4.82;2.70;;;13.20;72.80;;;;;;4934471;29;20051;-65
2021/12/07 11:47:04;;;;;;;5.40;2.67;;;13.20;71.10;;;;;;4934650;29;20436;-64
2021/12/07 11:50:30;;;;;;;5.65;3.15;;;13.20;72.20;;;;;;4934498;29;20047;-64
2021/12/07 11:53:34;;;;;;;6.78;3.10;;;13.00;71.50;;;;;;4934558;29;20399;-65
2021/12/07 11:56:39;;;;;;;6.65;3.15;;;13.00;73.40;;;;;;4934104;29;20074;-63
2021/12/07 11:59:45;;;;;;;5.82;3.42;;;13.10;74.30;;;;;;4934080;29;20047;-64
2021/12/07 12:02:50;;;;;;;7.10;3.42;;;13.10;74.20;;;;;;4933897;29;20059;-65
2021/12/07 12:05:55;;;;;;;5.80;3.08;;;13.00;73.20;;;;;;4934040;29;20054;-65
2021/12/07 12:08:59;;;;;;;6.53;3.20;;;13.00;73.50;;;;;;4933827;29;20070;-64
2021/12/07 12:12:31;;;;;;;5.32;3.13;;;12.90;69.10;;;;;;4933972;29;20389;-64
2021/12/07 12:16:02;;;;;;;4.73;3.77;;;12.90;68.20;;;;;;4934265;29;20504;-65
2021/12/07 12:19:22;;;;;;;3.60;2.15;;;12.90;71.50;;;;;;4933814;29;20526;-64
2021/12/07 12:22:32;;;;;;;6.43;1.80;;;12.90;70.10;;;;;;4934123;29;20051;-65
2021/12/07 12:25:36;;;;;;;3.08;1.58;;;12.90;67.00;;;;;;4934079;29;20046;-65
2021/12/07 12:28:49;;;;;;;6.05;2.10;;;12.90;68.80;;;;;;4934031;29;20051;-64
2021/12/07 12:31:58;;;;;;;8.25;2.42;;;12.80;67.90;;;;;;4933807;29;20046;-64
2021/12/07 12:35:05;;;;;;;8.82;2.42;;;12.80;68.70;;;;;;4933633;29;20055;-64
2021/12/07 12:38:24;;;;;;;6.07;2.33;;;12.80;68.90;;;;;;4933584;29;20047;-64
2021/12/07 12:41:29;;;;;;;5.60;2.95;;;12.70;66.00;;;;;;4933559;29;20043;-63
2021/12/07 12:44:35;;;;;;;9.57;1.90;;;12.70;66.30;;;;;;4933571;29;20065;-64
2021/12/07 12:47:40;;;;;;;3.63;2.10;;;12.70;65.00;;;;;;4933809;29;20050;-64
2021/12/07 12:50:44;;;;;;;4.22;1.70;;;12.60;66.30;;;;;;4933373;29;20051;-65
2021/12/07 12:53:49;;;;;;;3.38;1.58;;;12.60;65.30;;;;;;4933375;29;20043;-64
2021/12/07 12:57:17;;;;;;;3.45;2.03;;;12.60;65.90;;;;;;4933275;29;20136;-64
2021/12/07 13:00:22;;;;;;;3.95;2.00;;;12.60;69.70;;;;;;4933542;29;20392;-64
2021/12/07 13:04:00;;;;;;;4.10;2.60;;;12.60;70.50;;;;;;4933460;29;20042;-64
2021/12/07 13:10:14;;;;;;;3.00;2.05;;;12.50;66.20;;;;;;4937516;29;20055;-64
2021/12/07 13:13:33;;;;;;;3.28;1.60;;;12.40;64.30;;;;;;4937395;29;20507;-65
2021/12/07 13:16:46;;;;;;;4.35;2.05;;;12.40;66.00;;;;;;4937106;29;20424;-65
2021/12/07 13:20:38;;;;;;;2.85;1.80;;;12.40;69.20;;;;;;4937448;29;20055;-65
2021/12/07 13:24:25;;;;;;;4.18;1.80;;;12.40;66.90;;;;;;4937126;29;20396;-66
2021/12/07 13:27:29;;;;;;;3.78;1.85;;;12.40;65.70;;;;;;4940155;29;20051;-65
2021/12/07 13:30:59;;;;;;;4.75;2.10;;;12.40;66.70;;;;;;4936246;29;20066;-66
2021/12/07 13:34:04;;;;;;;2.78;2.17;;;12.40;68.00;;;;;;4936900;29;20051;-66
2021/12/07 13:37:11;;;;;;;6.38;2.40;;;12.30;65.70;;;;;;4936707;29;20066;-66
2021/12/07 13:40:24;;;;;;;6.82;3.22;;;12.30;66.20;;;;;;4936657;29;20042;-67
2021/12/07 13:43:37;;;;;;;5.55;2.90;;;12.30;67.30;;;;;;4936776;29;20067;-65
2021/12/07 13:46:41;;;;;;;5.90;2.75;;;12.30;65.00;;;;;;4936777;29;20043;-66
2021/12/07 13:49:55;;;;;;;4.40;2.05;;;12.20;67.20;;;;;;4936703;29;20051;-65
2021/12/07 13:53:00;;;;;;;3.83;2.33;;;12.20;66.70;;;;;;4936537;29;20078;-65
2021/12/07 13:56:04;;;;;;;2.53;1.50;;;12.20;65.20;;;;;;4936448;29;20078;-65
2021/12/07 13:59:15;;;;;;;5.30;2.20;;;12.20;63.50;;;;;;4936611;29;20051;-65
2021/12/07 14:02:22;;;;;;;5.97;3.03;;;12.20;63.40;;;;;;4936395;29;20043;-65
2021/12/07 14:05:29;;;;;;;6.85;2.90;;;12.10;62.90;;;;;;4936440;29;20051;-66
2021/12/07 14:08:34;;;;;;;4.65;2.30;;;12.10;63.10;;;;;;4936438;29;20396;-66
2021/12/07 14:11:39;;;;;;;5.38;2.70;;;12.00;62.10;;;;;;4936127;29;20050;-65
2021/12/07 14:14:43;;;;;;;5.32;3.67;;;12.00;64.30;;;;;;4936421;29;20047;-65
2021/12/07 14:17:52;;;;;;;4.40;2.25;;;12.00;65.00;;;;;;4934998;29;20066;-65
2021/12/07 14:20:58;;;;;;;8.30;3.50;;;12.00;67.30;;;;;;4935940;29;20043;-65
2021/12/07 14:24:08;;;;;;;9.57;3.60;;;11.90;67.80;;;;;;4935982;29;20498;-65
2021/12/07 14:27:12;;;;;;;6.07;3.60;;;12.00;69.10;;;;;;4936363;29;20062;-66
2021/12/07 14:30:17;;;;;;;4.68;2.58;;;12.00;66.30;;;;;;4936140;29;20054;-63
2021/12/07 14:33:21;;;;;;;7.88;2.85;;;11.90;66.40;;;;;;4935058;29;20054;-67
2021/12/07 14:36:26;;;;;;;6.75;2.85;;;11.90;68.40;;;;;;4935770;29;20055;-66
2021/12/07 14:39:36;;;;;;;6.22;2.65;;;11.90;65.70;;;;;;4935719;29;20138;-66
2021/12/07 14:42:40;;;;;;;8.57;3.30;;;11.80;66.70;;;;;;4935485;29;20396;-65
2021/12/07 14:45:44;;;;;;;11.55;3.63;;;11.80;67.10;;;;;;4935616;29;20404;-64
2021/12/07 14:48:50;;;;;;;4.97;2.90;;;11.80;67.60;;;;;;4935486;29;20047;-65
2021/12/07 14:51:54;;;;;;;6.68;3.08;;;11.80;66.50;;;;;;4935198;29;20050;-64
2021/12/07 14:55:00;;;;;;;7.47;3.70;;;11.70;67.00;;;;;;4935648;29;20047;-65
2021/12/07 14:58:05;;;;;;;12.75;6.00;;;11.70;66.10;;;;;;4935150;29;20055;-64
2021/12/07 15:01:12;;;;;;;17.35;6.50;;;11.60;66.20;;;;;;4935281;29;20050;-65
2021/12/07 15:04:18;;;;;;;12.38;5.28;;;11.60;66.20;;;;;;4934886;29;20050;-64
2021/12/07 15:07:30;;;;;;;9.50;4.80;;;11.60;66.90;;;;;;4935228;29;20491;-67
2021/12/07 15:10:34;;;;;;;15.20;6.72;;;11.60;67.10;;;;;;4934437;29;20073;-66
2021/12/07 15:13:39;;;;;;;16.17;7.63;;;11.50;67.30;;;;;;4935005;29;20050;-67
2021/12/07 15:16:46;;;;;;;13.05;7.70;;;11.50;67.40;;;;;;4934127;29;20066;-68
2021/12/07 15:19:50;;;;;;;15.35;6.32;;;11.40;68.20;;;;;;4934501;29;20047;-67
2021/12/07 15:22:54;;;;;;;15.48;7.72;;;11.30;68.80;;;;;;4934558;29;20055;-67
2021/12/07 15:25:58;;;;;;;18.27;8.57;;;11.30;68.80;;;;;;4935001;29;20346;-67
2021/12/07 15:29:05;;;;;;;35.63;9.88;;;11.20;69.10;;;;;;4934760;29;20399;-65
2021/12/07 15:32:12;;;;;;;24.50;9.73;;;11.10;69.60;;;;;;4934786;29;20399;-68
2021/12/07 15:35:34;;;;;;;27.35;10.77;;;11.10;70.90;;;;;;4933894;29;20412;-62
2021/12/07 15:38:39;;;;;;;17.40;8.52;;;11.00;70.90;;;;;;4934199;29;20055;-62
2021/12/07 15:42:11;;;;;;;25.65;9.30;;;10.90;70.90;;;;;;4934338;29;20046;-62
2021/12/07 15:45:16;;;;;;;32.30;11.77;;;10.90;71.70;;;;;;4934165;29;20039;-65
2021/12/07 15:48:20;;;;;;;36.67;9.50;;;10.90;71.60;;;;;;4934270;29;20063;-66
2021/12/07 15:51:25;;;;;;;23.17;9.25;;;10.80;71.90;;;;;;4934037;29;20051;-66
2021/12/07 15:54:29;;;;;;;21.20;9.27;;;10.70;71.80;;;;;;4933838;29;20055;-66
2021/12/07 15:57:41;;;;;;;23.85;11.07;;;10.70;71.50;;;;;;4933890;29;20062;-65
2021/12/07 16:00:57;;;;;;;22.65;10.88;;;10.60;72.60;;;;;;4933739;29;20050;-66
2021/12/07 16:04:01;;;;;;;26.85;11.68;;;10.60;72.80;;;;;;4933435;29;20058;-66
2021/12/07 16:07:17;;;;;;;33.65;11.73;;;10.50;75.10;;;;;;4933805;29;20150;-65
2021/12/07 16:10:23;;;;;;;35.33;11.73;;;10.40;76.80;;;;;;4933862;29;20063;-67
2021/12/07 16:13:30;;;;;;;24.33;10.10;;;10.40;79.10;;;;;;4933414;29;20088;-63
2021/12/07 16:16:37;;;;;;;20.00;7.97;;;10.30;79.20;;;;;;4933371;29;20058;-68
2021/12/07 16:19:41;;;;;;;17.88;7.43;;;10.20;79.10;;;;;;4933797;29;20055;-67
2021/12/07 16:22:45;;;;;;;17.58;7.55;;;10.00;78.60;;;;;;4933341;29;20046;-68
2021/12/07 16:25:49;;;;;;;23.17;8.75;;;10.00;78.30;;;;;;4933595;29;20047;-68
2021/12/07 16:28:57;;;;;;;32.80;15.73;;;9.90;79.00;;;;;;4933830;29;20050;-68
2021/12/07 16:32:02;;;;;;;41.03;13.60;;;9.80;78.50;;;;;;4933445;29;20408;-68
2021/12/07 16:35:09;;;;;;;45.65;18.88;;;9.80;80.20;;;;;;4933143;29;20063;-66
2021/12/07 16:38:13;;;;;;;43.30;22.67;;;9.60;79.50;;;;;;4933251;29;20054;-66
2021/12/07 16:41:17;;;;;;;48.20;20.20;;;9.50;80.40;;;;;;4932548;29;20597;-66
2021/12/07 16:44:21;;;;;;;46.42;20.17;;;9.50;82.50;;;;;;4933382;29;20109;-67
2021/12/07 16:47:25;;;;;;;38.67;20.73;;;9.50;82.50;;;;;;4933715;29;20453;-67
2021/12/07 16:50:29;;;;;;;45.47;22.90;;;9.60;82.80;;;;;;4933592;29;20507;-67
2021/12/07 16:53:33;;;;;;;48.85;25.50;;;9.40;83.60;;;;;;4933565;29;20114;-67
2021/12/07 16:56:37;;;;;;;52.10;26.42;;;9.40;82.30;;;;;;4932465;29;20066;-67
2021/12/07 16:59:42;;;;;;;47.15;24.08;;;9.40;82.80;;;;;;4933412;29;20055;-67
2021/12/07 17:02:46;;;;;;;59.03;32.08;;;9.30;83.90;;;;;;4933171;29;20404;-66
2021/12/07 17:05:52;;;;;;;69.53;40.53;;;9.20;84.00;;;;;;4932044;29;20050;-67
2021/12/07 17:08:56;;;;;;;76.88;42.10;;;9.20;83.20;;;;;;4933383;29;20112;-66
2021/12/07 17:12:00;;;;;;;81.97;43.90;;;9.10;83.50;;;;;;4931827;29;20061;-66
2021/12/07 17:15:06;;;;;;;87.32;48.83;;;8.90;84.10;;;;;;4933230;29;20039;-67
2021/12/07 17:18:12;;;;;;;85.57;44.78;;;8.90;84.70;;;;;;4933257;29;20055;-67
2021/12/07 17:21:16;;;;;;;95.85;48.13;;;8.90;85.30;;;;;;4933015;29;20054;-67
2021/12/07 17:24:20;;;;;;;89.97;49.22;;;8.80;85.80;;;;;;4933310;29;20051;-67
2021/12/07 17:27:26;;;;;;;91.88;49.80;;;8.70;86.10;;;;;;4932262;29;20410;-67
2021/12/07 17:30:31;;;;;;;109.82;58.72;;;8.60;85.50;;;;;;4932906;29;20047;-67
2021/12/07 17:33:35;;;;;;;94.53;53.17;;;8.50;85.40;;;;;;4932957;29;20055;-66
2021/12/07 17:36:39;;;;;;;108.53;62.63;;;8.50;85.20;;;;;;4932818;29;20051;-66
2021/12/07 17:39:48;;;;;;;141.50;79.80;;;8.50;86.70;;;;;;4931879;29;20050;-66
2021/12/07 17:42:52;;;;;;;135.65;78.53;;;8.40;86.50;;;;;;4933109;29;20071;-66
2021/12/07 17:45:56;;;;;;;120.47;69.10;;;8.30;87.40;;;;;;4932998;29;20408;-66
2021/12/07 17:49:03;;;;;;;127.10;75.85;;;8.20;86.30;;;;;;4932724;29;20507;-65